Time;durP1;ratioP1;P1;durP2;ratioP2;P2;SDS_P1;SDS_P2;PMS_P1;PMS_P2;Temp;Humidity;BMP_temperature;BMP_pressure;BME280_temperature;BME280_humidity;BME280_pressure;Samples;Min_cycle;Max_cycle;Signal;HPM_P1;HPM_P2
2023/03/06 00:00:22;;;;;;;;;91.50;75.00;;;;;6.73;39.55;98872.19;5046724;28;9416;-77
2023/03/06 00:03:12;;;;;;;;;83.25;64.25;;;;;6.80;38.62;98876.44;5020197;28;10310;-77
2023/03/06 00:05:41;;;;;;;;;78.25;61.50;;;;;6.82;39.07;98861.59;5049146;28;9697;-78
2023/03/06 00:08:12;;;;;;;;;68.25;55.00;;;;;6.90;37.90;98865.81;5015414;28;9711;-78
2023/03/06 00:10:40;;;;;;;;;74.33;60.00;;;;;6.91;38.48;98861.47;5050494;28;8845;-78
2023/03/06 00:13:12;;;;;;;;;77.33;61.67;;;;;6.90;38.34;98871.03;5047678;28;8936;-77
2023/03/06 00:15:41;;;;;;;;;80.00;62.00;;;;;6.92;38.27;98862.34;5048733;28;9201;-77
2023/03/06 00:18:10;;;;;;;;;77.67;61.67;;;;;6.92;38.17;98864.94;5048377;28;8962;-78
2023/03/06 00:20:41;;;;;;;;;72.33;59.00;;;;;6.87;38.63;98863.25;5064999;28;8956;-77
2023/03/06 00:23:13;;;;;;;;;78.00;60.00;;;;;6.89;38.35;98876.28;5048220;28;9758;-77
2023/03/06 00:25:43;;;;;;;;;78.67;62.00;;;;;6.86;38.35;98878.94;5048738;28;9051;-77
2023/03/06 00:28:14;;;;;;;;;70.50;56.75;;;;;6.80;38.53;98876.44;5048495;28;9907;-77
2023/03/06 00:30:44;;;;;;;;;67.50;56.25;;;;;6.65;38.68;98874.94;5047279;28;8849;-78
2023/03/06 00:33:13;;;;;;;;;74.67;59.00;;;;;6.54;39.24;98877.69;5049919;28;8853;-77
2023/03/06 00:35:42;;;;;;;;;82.75;66.25;;;;;6.47;39.30;98869.09;5048356;28;9767;-77
2023/03/06 00:38:13;;;;;;;;;93.25;73.25;;;;;6.26;40.54;98875.47;5049669;28;9566;-78
2023/03/06 00:40:43;;;;;;;;;94.50;82.00;;;;;6.17;40.57;98878.25;5049292;28;10258;-79
2023/03/06 00:43:12;;;;;;;;;97.75;79.25;;;;;6.18;40.26;98868.66;5049491;28;10713;-79
2023/03/06 00:45:42;;;;;;;;;94.25;74.75;;;;;6.12;40.56;98874.81;5048600;28;10549;-78
2023/03/06 00:48:11;;;;;;;;;95.50;83.25;;;;;5.73;41.79;98874.44;5027670;28;10636;-77
2023/03/06 00:50:40;;;;;;;;;93.50;78.00;;;;;5.91;41.48;98871.63;5044678;28;10787;-77
2023/03/06 00:53:12;;;;;;;;;99.00;87.50;;;;;5.97;41.09;98875.88;5027333;28;10817;-77
2023/03/06 00:55:45;;;;;;;;;100.50;89.00;;;;;6.07;41.30;98867.03;5053745;28;10771;-78
2023/03/06 00:58:14;;;;;;;;;95.25;79.50;;;;;6.00;41.55;98867.16;5064773;28;11036;-79
2023/03/06 01:00:43;;;;;;;;;101.00;84.50;;;;;5.95;41.48;98861.16;5049090;28;10662;-77
2023/03/06 01:03:11;;;;;;;;;92.25;77.25;;;;;5.70;41.67;98859.72;5064431;28;10662;-77
2023/03/06 01:05:41;;;;;;;;;90.25;71.75;;;;;5.53;42.18;98856.44;5060059;28;10450;-77
2023/03/06 01:08:09;;;;;;;;;97.25;82.25;;;;;5.44;42.65;98861.75;5044545;28;10096;-78
2023/03/06 01:10:39;;;;;;;;;95.50;74.25;;;;;5.44;42.02;98857.41;5032122;28;10404;-78
2023/03/06 01:13:11;;;;;;;;;88.25;71.25;;;;;5.51;41.58;98856.47;5030286;28;9905;-77
2023/03/06 01:15:39;;;;;;;;;74.33;58.00;;;;;5.52;40.94;98852.94;5048963;28;10634;-78
2023/03/06 01:18:08;;;;;;;;;98.00;80.50;;;;;5.59;41.79;98845.09;5016461;28;8940;-77
2023/03/06 01:20:37;;;;;;;;;90.75;73.00;;;;;5.58;41.91;98848.56;5051193;28;10238;-77
2023/03/06 01:23:06;;;;;;;;;97.00;77.00;;;;;5.60;42.27;98846.78;5048857;28;10383;-78
2023/03/06 01:25:35;;;;;;;;;98.50;79.00;;;;;5.57;42.11;98839.88;5049109;28;10435;-76
2023/03/06 01:28:03;;;;;;;;;94.75;77.25;;;;;5.56;42.12;98839.91;5064434;28;10476;-78
2023/03/06 01:30:34;;;;;;;;;99.50;81.75;;;;;5.54;42.11;98842.50;5038928;28;10386;-79
2023/03/06 01:33:02;;;;;;;;;96.25;78.00;;;;;5.53;42.51;98841.66;5044478;28;10440;-79
2023/03/06 01:35:31;;;;;;;;;99.00;82.25;;;;;5.52;42.28;98837.31;5027729;28;10308;-77
2023/03/06 01:38:00;;;;;;;;;88.50;70.00;;;;;5.48;41.89;98846.06;5028930;28;10421;-77
2023/03/06 01:40:31;;;;;;;;;82.00;65.67;;;;;5.44;41.78;98840.91;5064302;28;10058;-78
2023/03/06 01:43:09;;;;;;;;;73.25;58.50;;;;;5.50;41.44;98833.88;5080934;28;9365;-78
2023/03/06 01:46:15;;;;;;;;;66.50;53.50;;;;;5.55;41.21;98836.44;5081051;28;8864;-77
2023/03/06 01:48:48;;;;;;;;;55.00;47.25;;;;;5.40;40.87;98837.47;5064365;28;8869;-79
2023/03/06 01:51:17;;;;;;;;;60.75;47.00;;;;;5.34;40.70;98841.00;5046641;28;8957;-79
2023/03/06 01:53:47;;;;;;;;;50.25;44.25;;;;;5.33;40.65;98835.81;5045473;28;9007;-77
2023/03/06 01:56:16;;;;;;;;;44.75;39.25;;;;;5.31;40.32;98835.81;5047323;28;8848;-78
2023/03/06 01:58:45;;;;;;;;;43.25;39.25;;;;;5.26;40.41;98828.91;5047297;28;9014;-79
2023/03/06 02:01:15;;;;;;;;;44.00;37.50;;;;;5.29;40.19;98829.72;5080342;28;8852;-77
2023/03/06 02:03:48;;;;;;;;;49.00;39.25;;;;;5.30;39.91;98830.59;5063991;28;8969;-77
2023/03/06 02:06:20;;;;;;;;;37.75;32.00;;;;;5.30;40.25;98839.31;5046893;28;9602;-77
2023/03/06 02:08:51;;;;;;;;;35.25;34.75;;;;;5.25;40.25;98830.66;5030679;28;8868;-77
2023/03/06 02:11:22;;;;;;;;;38.50;33.00;;;;;5.23;40.34;98828.94;5062643;28;8917;-78
2023/03/06 02:13:53;;;;;;;;;37.25;34.50;;;;;5.25;40.10;98833.25;5047145;28;8861;-78
2023/03/06 02:16:27;;;;;;;;;36.50;33.25;;;;;5.24;40.23;98825.44;5029662;28;8857;-78
2023/03/06 02:19:00;;;;;;;;;29.25;28.00;;;;;5.21;40.00;98828.06;5047357;28;9007;-77
2023/03/06 02:21:34;;;;;;;;;38.75;34.25;;;;;5.23;40.22;98832.41;5047160;28;8922;-78
2023/03/06 02:24:20;;;;;;;;;32.50;30.50;;;;;5.29;40.06;98828.88;5080798;28;8877;-76
2023/03/06 02:26:53;;;;;;;;;41.50;36.00;;;;;5.12;40.24;98826.44;5040674;28;8868;-77
2023/03/06 02:29:26;;;;;;;;;32.25;32.25;;;;;5.15;40.45;98831.59;4992899;28;8840;-77
2023/03/06 02:31:56;;;;;;;;;38.00;35.25;;;;;5.07;40.38;98826.47;5025430;28;8856;-76
2023/03/06 02:34:54;;;;;;;;;34.75;32.00;;;;;5.19;40.26;98837.66;5029120;28;8858;-77
2023/03/06 02:37:25;;;;;;;;;34.50;32.75;;;;;5.09;40.49;98829.06;5009016;28;8852;-78
2023/03/06 02:40:06;;;;;;;;;30.25;28.50;;;;;5.13;40.51;98836.84;5011027;28;8898;-77
2023/03/06 02:42:37;;;;;;;;;41.25;38.50;;;;;5.06;40.40;98831.72;4996445;28;8882;-77
2023/03/06 02:45:10;;;;;;;;;34.25;32.25;;;;;5.04;40.54;98833.50;5009737;28;8997;-77
2023/03/06 02:47:39;;;;;;;;;34.75;32.75;;;;;5.01;40.62;98834.34;5020979;28;8870;-76
2023/03/06 02:50:09;;;;;;;;;42.00;37.75;;;;;5.02;40.57;98833.50;4977049;28;8862;-77
2023/03/06 02:52:38;;;;;;;;;35.75;32.75;;;;;5.01;40.65;98842.16;4969902;28;8898;-78
2023/03/06 02:55:08;;;;;;;;;38.00;34.00;;;;;4.96;40.63;98836.13;4978519;28;8877;-76
2023/03/06 02:57:38;;;;;;;;;33.00;29.75;;;;;5.01;40.46;98831.75;4948270;28;8854;-78
2023/03/06 03:00:08;;;;;;;;;22.50;22.50;;;;;5.04;40.54;98839.56;4992844;28;8912;-77
2023/03/06 03:02:37;;;;;;;;;30.33;30.33;;;;;5.05;40.54;98838.66;4972802;28;8864;-77
2023/03/06 03:05:07;;;;;;;;;39.75;31.00;;;;;5.03;40.43;98832.59;4973243;28;8914;-78
2023/03/06 03:07:36;;;;;;;;;36.50;35.00;;;;;5.02;40.52;98838.72;4959438;28;8864;-77
2023/03/06 03:10:06;;;;;;;;;35.50;30.50;;;;;5.01;40.76;98833.50;5014193;28;8902;-76
2023/03/06 03:12:35;;;;;;;;;36.50;27.50;;;;;4.95;40.58;98826.63;5046800;28;8882;-78
2023/03/06 03:15:06;;;;;;;;;34.00;28.50;;;;;4.95;40.88;98824.88;5029087;28;8959;-78
2023/03/06 03:17:36;;;;;;;;;31.50;28.00;;;;;4.98;40.56;98820.50;5019783;28;8851;-76
2023/03/06 03:20:07;;;;;;;;;25.75;25.75;;;;;4.98;40.51;98825.72;4993127;28;8874;-78
2023/03/06 03:22:36;;;;;;;;;32.75;32.50;;;;;5.01;40.80;98818.72;4989393;28;8864;-77
2023/03/06 03:25:06;;;;;;;;;29.50;27.25;;;;;4.95;40.82;98822.25;5014480;28;9001;-78
2023/03/06 03:27:35;;;;;;;;;20.50;19.75;;;;;4.95;40.73;98814.44;5014240;28;8980;-76
2023/03/06 03:30:08;;;;;;;;;33.50;27.00;;;;;4.98;40.67;98817.91;5029513;28;8948;-77
2023/03/06 03:32:37;;;;;;;;;29.25;26.75;;;;;4.97;40.49;98818.78;5051611;28;8860;-78
2023/03/06 03:35:08;;;;;;;;;36.25;31.50;;;;;5.00;40.49;98814.41;5053903;28;8871;-76
2023/03/06 03:37:38;;;;;;;;;19.25;17.75;;;;;4.99;40.67;98812.69;5050729;28;8893;-78
2023/03/06 03:40:09;;;;;;;;;43.25;34.75;;;;;5.01;40.55;98817.88;5066112;28;8868;-78
2023/03/06 03:42:38;;;;;;;;;30.75;28.25;;;;;4.98;40.59;98813.56;5048775;28;8853;-78
2023/03/06 03:45:10;;;;;;;;;40.75;34.50;;;;;4.95;41.01;98811.84;5065931;28;8949;-77
2023/03/06 03:47:41;;;;;;;;;33.50;30.75;;;;;4.92;40.62;98803.19;5082700;28;8911;-78
2023/03/06 03:50:12;;;;;;;;;37.50;33.00;;;;;4.84;40.71;98808.47;5082205;28;8857;-79
2023/03/06 03:52:41;;;;;;;;;33.00;30.50;;;;;4.80;40.87;98809.38;5081408;28;8868;-76
2023/03/06 03:55:11;;;;;;;;;37.25;30.00;;;;;4.65;41.23;98801.72;5065357;28;8875;-77
2023/03/06 03:57:42;;;;;;;;;32.75;28.50;;;;;4.69;41.37;98801.66;4999117;28;8875;-77
2023/03/06 04:00:15;;;;;;;;;38.25;32.75;;;;;4.64;41.55;98807.78;5032564;28;8849;-78
2023/03/06 04:02:54;;;;;;;;;36.00;31.00;;;;;4.67;41.24;98806.03;5000713;28;8864;-78
2023/03/06 04:05:34;;;;;;;;;30.50;28.75;;;;;4.67;41.48;98806.03;4999809;28;9001;-79
2023/03/06 04:08:05;;;;;;;;;32.50;31.75;;;;;4.66;41.06;98814.72;5014853;28;8872;-78
2023/03/06 04:10:38;;;;;;;;;33.75;29.00;;;;;4.66;41.49;98816.44;5065375;28;8861;-77
2023/03/06 04:13:08;;;;;;;;;29.25;29.25;;;;;4.67;41.52;98808.63;5065515;28;8892;-77
2023/03/06 04:15:42;;;;;;;;;32.00;31.50;;;;;4.68;41.36;98805.16;5065218;28;8857;-77
2023/03/06 04:18:12;;;;;;;;;30.00;29.00;;;;;4.68;41.20;98807.78;5065092;28;8841;-78
2023/03/06 04:20:41;;;;;;;;;27.75;27.00;;;;;4.64;41.28;98802.59;5048508;28;8856;-78
2023/03/06 04:23:11;;;;;;;;;31.00;27.50;;;;;4.67;41.45;98803.44;5064992;28;8993;-76
2023/03/06 04:25:40;;;;;;;;;32.75;26.25;;;;;4.69;41.16;98793.84;5013637;28;8886;-76
2023/03/06 04:28:12;;;;;;;;;30.50;25.00;;;;;4.69;41.11;98801.66;5049374;28;8888;-77
2023/03/06 04:30:43;;;;;;;;;38.25;32.75;;;;;4.65;41.16;98796.53;5048336;28;8837;-78
2023/03/06 04:33:12;;;;;;;;;33.25;28.25;;;;;4.63;41.13;98796.53;5029005;28;8862;-78
2023/03/06 04:35:42;;;;;;;;;31.00;30.00;;;;;4.64;41.56;98795.66;5030606;28;8872;-80
2023/03/06 04:38:17;;;;;;;;;19.25;16.50;;;;;4.61;41.35;98790.47;5030045;28;8849;-77
2023/03/06 04:40:48;;;;;;;;;33.00;29.00;;;;;4.61;41.67;98787.00;5029254;28;8869;-76
2023/03/06 04:43:17;;;;;;;;;31.00;24.25;;;;;4.62;41.27;98786.13;5046552;28;8900;-77
2023/03/06 04:45:47;;;;;;;;;17.75;17.00;;;;;4.65;41.44;98784.34;5047068;28;8874;-78
2023/03/06 04:48:18;;;;;;;;;30.25;26.25;;;;;4.64;41.34;98785.25;5063276;28;8896;-78
2023/03/06 04:50:47;;;;;;;;;42.25;39.75;;;;;4.62;41.59;98786.13;5047294;28;9639;-79
2023/03/06 04:53:18;;;;;;;;;31.50;26.50;;;;;4.57;41.32;98780.97;5046553;28;8846;-79
2023/03/06 04:55:47;;;;;;;;;32.50;31.75;;;;;4.58;41.42;98782.69;5045735;28;8868;-79
2023/03/06 04:58:16;;;;;;;;;30.50;27.25;;;;;4.57;41.81;98780.97;5046324;28;8846;-77
2023/03/06 05:00:45;;;;;;;;;30.50;27.25;;;;;4.59;41.68;98778.34;5063425;28;8869;-77
2023/03/06 05:03:15;;;;;;;;;33.00;31.50;;;;;4.62;41.65;98781.81;5012245;28;8897;-78
2023/03/06 05:05:43;;;;;;;;;51.25;44.50;;;;;4.55;41.60;98777.53;5044398;28;8848;-79
2023/03/06 05:08:14;;;;;;;;;41.50;38.00;;;;;4.51;41.90;98787.09;5061103;28;8856;-77
2023/03/06 05:10:44;;;;;;;;;30.50;28.00;;;;;4.50;41.72;98777.53;5029458;28;8890;-77
2023/03/06 05:13:13;;;;;;;;;31.25;28.75;;;;;4.39;41.86;98778.53;5048219;28;8852;-78
2023/03/06 05:15:42;;;;;;;;;28.00;28.00;;;;;4.40;41.48;98777.66;5072338;28;8845;-78
2023/03/06 05:18:10;;;;;;;;;32.25;31.00;;;;;4.37;41.58;98773.31;5053373;28;8944;-77
2023/03/06 05:20:40;;;;;;;;;36.75;35.75;;;;;4.40;41.87;98770.69;5031354;28;9003;-77
2023/03/06 05:23:09;;;;;;;;;38.50;32.75;;;;;4.41;41.96;98772.41;5047583;28;8841;-77
2023/03/06 05:25:39;;;;;;;;;31.50;28.00;;;;;4.41;41.66;98761.16;5048901;28;8885;-78
2023/03/06 05:28:09;;;;;;;;;32.50;30.75;;;;;4.44;42.02;98761.13;5059190;28;8871;-77
2023/03/06 05:30:38;;;;;;;;;37.50;29.75;;;;;4.45;41.32;98773.25;5063852;28;9003;-76
2023/03/06 05:33:07;;;;;;;;;25.00;23.50;;;;;4.42;41.64;98770.69;5030643;28;8833;-78
2023/03/06 05:35:36;;;;;;;;;42.00;32.75;;;;;4.47;41.45;98766.28;5048800;28;8840;-78
2023/03/06 05:38:06;;;;;;;;;88.00;67.75;;;;;4.51;41.24;98773.22;5064017;28;9019;-78
2023/03/06 05:40:35;;;;;;;;;43.75;40.00;;;;;4.59;41.31;98773.16;5044165;28;9409;-78
2023/03/06 05:43:05;;;;;;;;;29.50;25.50;;;;;4.52;40.85;98770.59;5061267;28;8835;-78
2023/03/06 05:45:34;;;;;;;;;29.25;23.50;;;;;4.59;40.50;98778.34;5027282;28;8835;-78
2023/03/06 05:48:03;;;;;;;;;31.00;25.50;;;;;4.60;40.38;98774.84;5043963;28;8867;-78
2023/03/06 05:50:32;;;;;;;;;25.00;25.00;;;;;4.69;40.21;98778.25;5060206;28;8863;-77
2023/03/06 05:53:01;;;;;;;;;24.25;23.75;;;;;4.75;39.98;98774.72;5056596;28;8871;-77
2023/03/06 05:55:31;;;;;;;;;36.50;29.75;;;;;4.82;39.91;98784.19;5048772;28;8922;-78
2023/03/06 05:58:00;;;;;;;;;26.25;23.25;;;;;4.89;39.92;98785.00;5081684;28;8849;-77
2023/03/06 06:00:29;;;;;;;;;24.75;24.50;;;;;4.99;39.47;98789.25;5064929;28;8865;-76
2023/03/06 06:03:00;;;;;;;;;26.50;22.50;;;;;4.99;39.33;98789.25;5049393;28;8860;-78
2023/03/06 06:05:29;;;;;;;;;25.75;21.25;;;;;5.12;39.48;98790.84;5034784;28;8864;-77
2023/03/06 06:07:58;;;;;;;;;27.00;25.50;;;;;5.21;39.01;98789.00;5050051;28;8875;-77
2023/03/06 06:10:26;;;;;;;;;25.25;24.25;;;;;5.23;39.15;98788.13;5047615;28;8864;-78
2023/03/06 06:12:57;;;;;;;;;29.25;27.25;;;;;5.38;39.22;98788.81;5050567;28;8861;-78
2023/03/06 06:15:27;;;;;;;;;25.50;25.00;;;;;5.47;39.01;98797.44;5053497;28;8845;-78
2023/03/06 06:17:57;;;;;;;;;31.50;29.00;;;;;5.42;38.91;98795.75;5063876;28;9580;-78
2023/03/06 06:20:26;;;;;;;;;36.75;34.50;;;;;5.61;39.05;98791.16;5053184;28;8942;-79
2023/03/06 06:22:55;;;;;;;;;32.50;28.75;;;;;5.63;38.91;98792.00;5051101;28;8952;-78
2023/03/06 06:25:23;;;;;;;;;23.50;19.75;;;;;5.78;38.82;98789.19;5047880;28;8858;-78
2023/03/06 06:27:56;;;;;;;;;27.75;27.00;;;;;5.77;38.36;98786.59;5043288;28;8916;-77
2023/03/06 06:30:25;;;;;;;;;29.00;26.75;;;;;5.89;38.53;98786.44;5060624;28;8903;-78
2023/03/06 06:32:54;;;;;;;;;31.25;30.00;;;;;5.92;38.57;98779.41;5050470;28;8892;-79
2023/03/06 06:35:23;;;;;;;;;33.75;29.50;;;;;5.90;38.00;98790.75;5032680;28;8887;-76
2023/03/06 06:37:52;;;;;;;;;30.00;29.00;;;;;5.91;37.99;98790.75;5044822;28;8887;-78
2023/03/06 06:40:23;;;;;;;;;26.00;22.75;;;;;5.95;38.12;98793.31;5049743;28;8896;-78
2023/03/06 06:42:52;;;;;;;;;33.25;28.25;;;;;6.01;38.53;98793.22;5002003;28;9676;-78
2023/03/06 06:45:23;;;;;;;;;31.75;26.00;;;;;6.09;37.56;98788.75;5013201;28;8883;-79
2023/03/06 06:47:52;;;;;;;;;30.00;26.40;;;;;6.15;37.76;98791.25;5028483;28;8833;-80
2023/03/06 06:50:21;;;;;;;;;28.50;27.25;;;;;6.15;37.48;98785.19;5027892;28;8872;-79
2023/03/06 06:52:50;;;;;;;;;25.50;22.25;;;;;6.15;38.05;98793.88;5015874;28;8946;-78
2023/03/06 06:55:19;;;;;;;;;24.25;18.75;;;;;6.37;36.99;98790.94;5009726;28;8878;-79
2023/03/06 06:57:48;;;;;;;;;22.50;21.50;;;;;6.45;36.78;98789.91;5029509;28;8876;-78
2023/03/06 07:00:17;;;;;;;;;26.75;24.25;;;;;6.62;36.87;98787.03;5012563;28;8860;-77
2023/03/06 07:02:50;;;;;;;;;27.50;26.75;;;;;6.69;36.98;98788.66;5039228;28;8836;-78
2023/03/06 07:05:19;;;;;;;;;25.00;22.75;;;;;6.62;36.32;98784.41;5034989;28;8899;-78
2023/03/06 07:07:50;;;;;;;;;28.00;24.00;;;;;6.68;36.45;98789.56;5026282;28;8842;-82
2023/03/06 07:10:19;;;;;;;;;27.50;24.25;;;;;6.58;36.50;98787.97;5036376;28;8882;-77
2023/03/06 07:12:49;;;;;;;;;27.75;26.00;;;;;6.61;37.00;98798.38;5019284;28;8869;-80
2023/03/06 07:15:18;;;;;;;;;33.50;28.00;;;;;6.56;36.92;98804.56;5049210;28;10130;-81
2023/03/06 07:17:49;;;;;;;;;26.40;25.60;;;;;6.69;36.87;98801.72;5027141;28;9608;-80
2023/03/06 07:20:18;;;;;;;;;32.00;28.75;;;;;6.89;36.70;98804.03;5054994;28;8852;-80
2023/03/06 07:22:48;;;;;;;;;32.75;30.00;;;;;6.88;36.17;98815.31;5048753;28;8849;-81
2023/03/06 07:25:20;;;;;;;;;30.75;26.75;;;;;6.93;36.77;98806.56;5066254;28;9649;-80
2023/03/06 07:27:52;;;;;;;;;26.25;24.25;;;;;7.06;36.13;98808.06;5052059;28;8915;-80
2023/03/06 07:30:23;;;;;;;;;28.75;25.25;;;;;7.17;36.89;98810.47;5050716;28;8903;-81
2023/03/06 07:32:54;;;;;;;;;25.75;25.25;;;;;7.11;36.52;98810.59;5032271;28;8957;-81
2023/03/06 07:35:24;;;;;;;;;24.00;22.25;;;;;7.23;35.90;98820.81;5050831;28;8857;-81
2023/03/06 07:38:13;;;;;;;;;31.50;29.25;;;;;7.50;35.70;98818.56;5051927;28;8863;-80
2023/03/06 07:40:42;;;;;;;;;28.00;27.00;;;;;7.55;36.00;98808.84;5069045;28;8874;-80
2023/03/06 07:43:11;;;;;;;;;33.25;27.25;;;;;7.60;35.25;98812.25;5052245;28;8848;-82
2023/03/06 07:45:57;;;;;;;;;35.00;28.75;;;;;7.62;35.83;98813.06;5035420;28;8942;-79
2023/03/06 07:48:28;;;;;;;;;31.50;27.75;;;;;7.61;35.87;98811.38;5051607;28;8848;-78
2023/03/06 07:50:58;;;;;;;;;38.50;34.25;;;;;7.75;35.34;98811.94;5052175;28;8884;-78
2023/03/06 07:53:28;;;;;;;;;23.25;21.25;;;;;7.92;35.25;98810.72;5066194;28;8978;-79
2023/03/06 07:55:56;;;;;;;;;37.75;31.75;;;;;7.80;35.03;98811.84;5035867;28;8878;-79
2023/03/06 07:58:25;;;;;;;;;33.50;31.00;;;;;7.98;34.35;98814.03;5069481;28;8852;-80
2023/03/06 08:00:54;;;;;;;;;30.50;28.50;;;;;7.84;34.61;98803.88;5068833;28;8848;-80
2023/03/06 08:03:23;;;;;;;;;35.50;30.00;;;;;7.71;35.42;98799.81;5052244;28;8894;-80
2023/03/06 08:05:54;;;;;;;;;32.75;29.25;;;;;7.46;35.39;98810.78;5036031;28;8880;-77
2023/03/06 08:08:22;;;;;;;;;34.50;29.75;;;;;7.78;34.69;98801.41;5050327;28;8847;-79
2023/03/06 08:10:51;;;;;;;;;31.25;29.75;;;;;7.79;35.00;98800.50;5051635;28;8864;-81
2023/03/06 08:13:21;;;;;;;;;29.50;27.25;;;;;7.83;34.52;98798.69;5050125;28;8954;-81
2023/03/06 08:15:49;;;;;;;;;36.00;29.00;;;;;7.92;34.35;98797.63;5061446;28;8938;-81
2023/03/06 08:18:18;;;;;;;;;33.75;29.75;;;;;8.05;34.35;98796.44;5069702;28;8941;-80
2023/03/06 08:20:47;;;;;;;;;27.00;22.80;;;;;8.00;34.32;98793.91;5038890;28;8879;-81
2023/03/06 08:23:18;;;;;;;;;31.50;28.25;;;;;7.97;34.13;98785.31;5031900;28;8852;-81
2023/03/06 08:25:46;;;;;;;;;29.50;27.25;;;;;8.09;34.34;98797.25;5029261;28;8883;-80
2023/03/06 08:28:15;;;;;;;;;32.75;27.50;;;;;8.23;33.90;98788.19;4995577;28;8876;-81
2023/03/06 08:30:44;;;;;;;;;27.75;24.00;;;;;8.23;33.84;98789.91;5012648;28;8973;-80
2023/03/06 08:33:13;;;;;;;;;31.50;28.50;;;;;8.22;32.85;98788.22;5012151;28;8864;-79
2023/03/06 08:35:42;;;;;;;;;23.75;23.00;;;;;8.18;32.94;98790.03;4994776;28;8864;-80
2023/03/06 08:38:11;;;;;;;;;27.25;25.25;;;;;8.24;33.16;98783.81;5009277;28;8884;-81
2023/03/06 08:40:41;;;;;;;;;19.00;19.00;;;;;8.35;33.24;98776.59;5020542;28;8892;-80
2023/03/06 08:43:11;;;;;;;;;26.60;24.20;;;;;8.22;32.35;98778.59;4995222;28;8835;-80
2023/03/06 08:45:41;;;;;;;;;25.25;23.75;;;;;8.18;32.28;98776.94;4975635;28;8921;-79
2023/03/06 08:48:10;;;;;;;;;17.40;17.40;;;;;8.34;32.49;98777.47;4964753;28;8896;-80
2023/03/06 08:50:41;;;;;;;;;25.75;25.50;;;;;8.42;32.59;98778.16;4995687;28;8846;-82
2023/03/06 08:53:09;;;;;;;;;24.20;19.80;;;;;8.42;31.93;98772.91;5008332;28;8855;-82
2023/03/06 08:55:39;;;;;;;;;20.60;17.20;;;;;8.69;31.54;98778.38;5026942;28;8852;-80
2023/03/06 08:58:09;;;;;;;;;19.80;18.00;;;;;8.88;31.22;98776.13;5036078;28;9588;-80
2023/03/06 09:00:38;;;;;;;;;21.00;18.80;;;;;8.89;30.81;98775.19;4999744;28;8897;-81
2023/03/06 09:03:07;;;;;;;;;24.00;19.20;;;;;9.04;30.40;98776.56;5030918;28;8886;-80
2023/03/06 09:05:36;;;;;;;;;27.20;20.40;;;;;9.08;30.51;98772.94;5031106;28;9580;-78
2023/03/06 09:08:06;;;;;;;;;20.80;20.00;;;;;9.22;30.48;98764.72;5027935;28;8930;-81
2023/03/06 09:10:34;;;;;;;;;13.40;13.40;;;;;9.30;29.57;98761.88;4978622;28;8969;-82
2023/03/06 09:13:03;;;;;;;;;20.60;19.40;;;;;9.21;27.85;98763.00;5028112;28;8856;-82
2023/03/06 09:15:33;;;;;;;;;20.60;19.20;;;;;9.32;28.83;98757.44;5046764;28;8944;-83
2023/03/06 09:18:03;;;;;;;;;20.60;20.20;;;;;9.54;29.01;98755.94;5046822;28;8901;-80
2023/03/06 09:20:32;;;;;;;;;21.80;20.00;;;;;9.58;28.70;98754.97;5048027;28;9629;-80
2023/03/06 09:23:01;;;;;;;;;21.20;20.80;;;;;9.59;28.92;98750.56;5005362;28;8845;-82
2023/03/06 09:25:29;;;;;;;;;20.00;18.20;;;;;9.84;29.11;98744.56;5007681;28;8997;-82
2023/03/06 09:28:01;;;;;;;;;25.20;23.40;;;;;10.10;28.47;98744.59;4991953;28;8858;-81
2023/03/06 09:30:41;;;;;;;;;16.00;16.00;;;;;10.12;27.76;98740.19;5009020;28;8842;-82
2023/03/06 09:33:10;;;;;;;;;16.40;16.00;;;;;10.21;27.08;98739.03;5008600;28;8854;-80
2023/03/06 09:35:45;;;;;;;;;19.80;16.00;;;;;10.25;26.81;98730.13;4992518;28;8874;-81
2023/03/06 09:38:14;;;;;;;;;16.20;15.20;;;;;10.29;26.63;98731.78;4992165;28;8839;-82
2023/03/06 09:41:01;;;;;;;;;19.20;18.60;;;;;10.13;27.13;98728.78;4989646;28;9051;-79
2023/03/06 09:43:34;;;;;;;;;16.60;16.40;;;;;10.13;27.25;98733.16;5048153;28;8972;-82
2023/03/06 09:46:19;;;;;;;;;21.60;20.20;;;;;9.96;26.75;98728.44;5045584;28;10157;-81
2023/03/06 09:49:01;;;;;;;;;18.40;18.40;;;;;9.73;27.26;98727.41;5050890;28;8857;-80
2023/03/06 09:51:39;;;;;;;;;26.20;19.60;;;;;9.77;27.66;98717.66;5036933;28;8868;-80
2023/03/06 09:54:13;;;;;;;;;17.60;16.80;;;;;9.65;27.35;98723.28;5015670;28;8962;-80
2023/03/06 09:56:47;;;;;;;;;19.00;19.00;;;;;9.70;27.28;98713.50;5036679;28;8873;-79
2023/03/06 09:59:20;;;;;;;;;20.80;17.60;;;;;9.71;27.59;98715.25;5082352;28;8865;-81
2023/03/06 10:02:00;;;;;;;;;25.50;22.00;;;;;9.89;27.67;98717.28;5048407;28;8886;-81
2023/03/06 10:04:36;;;;;;;;;22.00;18.00;;;;;9.88;27.88;98718.19;5076966;28;8849;-81
2023/03/06 10:07:14;;;;;;;;;22.00;20.80;;;;;9.87;27.77;98718.25;5082107;28;8919;-79
2023/03/06 10:09:48;;;;;;;;;28.40;21.60;;;;;9.81;27.75;98709.63;5064719;28;8880;-82
2023/03/06 10:12:22;;;;;;;;;21.00;18.80;;;;;9.98;27.84;98716.13;5064785;28;8865;-82
2023/03/06 10:15:07;;;;;;;;;22.00;19.20;;;;;10.15;27.59;98710.34;5065390;28;8860;-79
2023/03/06 10:17:40;;;;;;;;;20.80;19.80;;;;;10.18;27.69;98708.47;5014192;28;8887;-83
2023/03/06 10:20:17;;;;;;;;;20.00;17.40;;;;;10.23;27.30;98702.22;5005334;28;8855;-81
2023/03/06 10:22:57;;;;;;;;;17.60;17.20;;;;;10.20;27.67;98706.66;5031147;28;8849;-80
2023/03/06 10:25:37;;;;;;;;;22.20;20.80;;;;;10.21;27.85;98699.63;5082464;28;8896;-80
2023/03/06 10:28:16;;;;;;;;;21.80;17.60;;;;;10.43;27.21;98688.41;5048718;28;8857;-82
2023/03/06 10:30:56;;;;;;;;;22.20;19.40;;;;;10.39;27.59;98678.00;5018097;28;8865;-82
2023/03/06 10:33:40;;;;;;;;;23.40;22.40;;;;;10.28;27.60;98697.66;5053761;28;8889;-81
2023/03/06 10:36:14;;;;;;;;;26.40;22.00;;;;;10.41;27.73;98685.84;5062022;28;8890;-81
2023/03/06 10:38:47;;;;;;;;;19.00;18.20;;;;;10.46;27.45;98683.03;5063321;28;8878;-81
2023/03/06 10:41:27;;;;;;;;;25.00;22.40;;;;;10.51;27.57;98681.13;5050350;28;8950;-82
2023/03/06 10:44:19;;;;;;;;;24.00;22.00;;;;;10.58;27.85;98680.00;5050088;28;9713;-81
2023/03/06 10:46:51;;;;;;;;;23.75;19.25;;;;;10.71;27.94;98683.06;5048313;28;8873;-81
2023/03/06 10:49:30;;;;;;;;;29.20;24.00;;;;;10.87;27.78;98667.63;5034801;28;8899;-82
2023/03/06 10:52:04;;;;;;;;;22.00;21.25;;;;;10.74;28.04;98667.19;5055718;28;8847;-82
2023/03/06 10:54:34;;;;;;;;;26.40;23.20;;;;;10.81;28.32;98659.97;5047701;28;8853;-83
2023/03/06 10:57:25;;;;;;;;;17.80;17.00;;;;;11.13;27.85;98654.34;5049750;28;9656;-81
2023/03/06 10:59:56;;;;;;;;;19.60;18.00;;;;;11.17;27.67;98653.31;5067373;28;8865;-81
2023/03/06 11:02:31;;;;;;;;;28.00;25.75;;;;;11.44;27.78;98650.56;5074600;28;8893;-80
2023/03/06 11:05:02;;;;;;;;;24.60;24.60;;;;;11.48;27.26;98653.91;5026663;28;8856;-81
2023/03/06 11:07:33;;;;;;;;;29.25;25.00;;;;;11.04;27.54;98633.66;5055762;28;8908;-81
2023/03/06 11:10:06;;;;;;;;;34.25;27.50;;;;;11.08;27.06;98632.63;5040938;28;8854;-80
2023/03/06 11:12:37;;;;;;;;;26.60;24.80;;;;;11.04;27.64;98623.16;5024045;28;8842;-81
2023/03/06 11:15:17;;;;;;;;;25.80;25.60;;;;;11.58;27.35;98610.56;5055478;28;8860;-81
2023/03/06 11:17:56;;;;;;;;;32.25;25.75;;;;;11.33;26.90;98614.16;5054791;28;8896;-82
2023/03/06 11:20:29;;;;;;;;;26.00;24.25;;;;;11.79;28.06;98611.44;5043499;28;8916;-81
2023/03/06 11:23:22;;;;;;;;;28.80;26.00;;;;;12.17;26.87;98597.63;5049914;28;9029;-81
2023/03/06 11:25:57;;;;;;;;;26.00;24.25;;;;;12.26;26.75;98598.09;5046821;28;9606;-82
2023/03/06 11:28:30;;;;;;;;;26.80;24.40;;;;;12.45;26.33;98581.50;5033537;28;9725;-82
2023/03/06 11:31:05;;;;;;;;;18.40;18.40;;;;;12.67;25.99;98576.09;5050114;28;8850;-81
2023/03/06 11:33:39;;;;;;;;;25.80;20.40;;;;;12.98;25.76;98577.38;5050055;28;8862;-82
2023/03/06 11:36:15;;;;;;;;;26.80;23.80;;;;;13.22;25.31;98568.31;5017700;28;8865;-83
2023/03/06 11:38:49;;;;;;;;;24.20;22.80;;;;;12.98;25.44;98570.31;5049089;28;8858;-82
2023/03/06 11:41:31;;;;;;;;;23.00;20.20;;;;;13.22;25.05;98565.66;5035616;28;8863;-81
2023/03/06 11:44:12;;;;;;;;;22.40;18.60;;;;;13.31;25.52;98557.28;5032491;28;8910;-81
2023/03/06 11:46:45;;;;;;;;;22.20;20.60;;;;;13.59;25.11;98563.88;5033826;28;8891;-82
2023/03/06 11:49:22;;;;;;;;;26.80;23.20;;;;;13.68;24.58;98555.50;5033145;28;8843;-81
2023/03/06 11:51:57;;;;;;;;;22.60;22.60;;;;;13.44;24.79;98552.28;5030894;28;8844;-81